sensor_id;sensor_type;location;lat;lon;timestamp;pressure;altitude;pressure_sealevel;temperature;humidity
36798;BME280;22748;8.426;99.512;2023-07-13T00:00:17;100787.13;;;30.45;65.34
36798;BME280;22748;8.426;99.512;2023-07-13T00:02:49;100788.34;;;30.49;65.14
36798;BME280;22748;8.426;99.512;2023-07-13T00:05:19;100794.59;;;30.43;64.91
36798;BME280;22748;8.426;99.512;2023-07-13T00:07:50;100794.22;;;30.33;65.58
36798;BME280;22748;8.426;99.512;2023-07-13T00:10:21;100790.94;;;30.31;65.59
36798;BME280;22748;8.426;99.512;2023-07-13T00:12:54;100797.38;;;30.30;65.65
36798;BME280;22748;8.426;99.512;2023-07-13T00:15:27;100793.41;;;30.32;66.26
36798;BME280;22748;8.426;99.512;2023-07-13T00:18:00;100792.59;;;30.32;66.26
36798;BME280;22748;8.426;99.512;2023-07-13T00:20:31;100793.22;;;30.34;66.17
36798;BME280;22748;8.426;99.512;2023-07-13T00:23:01;100801.91;;;30.36;66.14
36798;BME280;22748;8.426;99.512;2023-07-13T00:25:38;100796.06;;;30.39;65.86
36798;BME280;22748;8.426;99.512;2023-07-13T00:28:11;100799.00;;;30.31;65.94
36798;BME280;22748;8.426;99.512;2023-07-13T00:30:47;100801.09;;;30.29;66.15
36798;BME280;22748;8.426;99.512;2023-07-13T00:33:17;100806.25;;;30.37;66.30
36798;BME280;22748;8.426;99.512;2023-07-13T00:35:47;100816.41;;;30.35;66.23
36798;BME280;22748;8.426;99.512;2023-07-13T00:38:18;100814.31;;;30.37;66.46
36798;BME280;22748;8.426;99.512;2023-07-13T00:40:49;100819.91;;;30.42;66.42
36798;BME280;22748;8.426;99.512;2023-07-13T00:43:23;100810.13;;;30.48;65.97
36798;BME280;22748;8.426;99.512;2023-07-13T00:46:13;100818.00;;;30.49;65.66
36798;BME280;22748;8.426;99.512;2023-07-13T00:48:45;100824.19;;;30.57;65.79
36798;BME280;22748;8.426;99.512;2023-07-13T00:51:22;100832.47;;;30.55;65.94
36798;BME280;22748;8.426;99.512;2023-07-13T00:54:05;100841.16;;;30.57;66.10
36798;BME280;22748;8.426;99.512;2023-07-13T00:56:38;100842.63;;;30.53;66.21
36798;BME280;22748;8.426;99.512;2023-07-13T00:59:22;100844.94;;;30.49;66.03
36798;BME280;22748;8.426;99.512;2023-07-13T01:01:58;100840.81;;;30.47;66.35
36798;BME280;22748;8.426;99.512;2023-07-13T01:04:29;100838.75;;;30.49;66.64
36798;BME280;22748;8.426;99.512;2023-07-13T01:07:09;100837.47;;;30.51;66.34
36798;BME280;22748;8.426;99.512;2023-07-13T01:09:47;100846.19;;;30.53;66.49
36798;BME280;22748;8.426;99.512;2023-07-13T01:12:25;100841.59;;;30.54;66.23
36798;BME280;22748;8.426;99.512;2023-07-13T01:15:03;100841.56;;;30.61;66.58
36798;BME280;22748;8.426;99.512;2023-07-13T01:17:34;100841.97;;;30.64;66.26
36798;BME280;22748;8.426;99.512;2023-07-13T01:20:05;100842.34;;;30.68;66.04
36798;BME280;22748;8.426;99.512;2023-07-13T01:22:48;100840.28;;;30.70;65.94
36798;BME280;22748;8.426;99.512;2023-07-13T01:25:23;100841.09;;;30.70;65.84
36798;BME280;22748;8.426;99.512;2023-07-13T01:27:53;100841.09;;;30.70;65.95
36798;BME280;22748;8.426;99.512;2023-07-13T01:30:24;100849.59;;;30.74;65.94
36798;BME280;22748;8.426;99.512;2023-07-13T01:32:54;100857.66;;;30.74;66.19
36798;BME280;22748;8.426;99.512;2023-07-13T01:35:26;100858.94;;;30.71;66.33
36798;BME280;22748;8.426;99.512;2023-07-13T01:37:59;100852.28;;;30.74;66.17
36798;BME280;22748;8.426;99.512;2023-07-13T01:40:31;100853.94;;;30.75;65.91
36798;BME280;22748;8.426;99.512;2023-07-13T01:43:02;100853.50;;;30.78;66.43
36798;BME280;22748;8.426;99.512;2023-07-13T01:45:34;100854.94;;;30.81;66.13
36798;BME280;22748;8.426;99.512;2023-07-13T01:48:04;100861.75;;;30.83;65.98
36798;BME280;22748;8.426;99.512;2023-07-13T01:50:41;100865.06;;;30.85;66.03
36798;BME280;22748;8.426;99.512;2023-07-13T01:53:17;100862.81;;;30.89;65.77
36798;BME280;22748;8.426;99.512;2023-07-13T01:55:49;100874.41;;;30.89;65.62
36798;BME280;22748;8.426;99.512;2023-07-13T01:58:19;100876.09;;;30.90;66.08
36798;BME280;22748;8.426;99.512;2023-07-13T02:00:49;100875.03;;;30.91;65.42
36798;BME280;22748;8.426;99.512;2023-07-13T02:03:21;100882.09;;;30.92;65.67
36798;BME280;22748;8.426;99.512;2023-07-13T02:05:53;100874.59;;;30.94;65.29
36798;BME280;22748;8.426;99.512;2023-07-13T02:08:36;100872.72;;;30.95;65.35
36798;BME280;22748;8.426;99.512;2023-07-13T02:11:07;100874.16;;;30.98;65.68
36798;BME280;22748;8.426;99.512;2023-07-13T02:13:38;100872.50;;;30.96;65.38
36798;BME280;22748;8.426;99.512;2023-07-13T02:16:09;100886.78;;;31.04;65.07
36798;BME280;22748;8.426;99.512;2023-07-13T02:18:39;100883.63;;;31.07;65.19
36798;BME280;22748;8.426;99.512;2023-07-13T02:21:10;100887.75;;;31.09;64.88
36798;BME280;22748;8.426;99.512;2023-07-13T02:23:43;100894.38;;;31.13;64.66
36798;BME280;22748;8.426;99.512;2023-07-13T02:26:19;100888.97;;;31.13;64.23
36798;BME280;22748;8.426;99.512;2023-07-13T02:28:49;100894.78;;;31.17;64.30
36798;BME280;22748;8.426;99.512;2023-07-13T02:31:20;100892.69;;;31.19;63.73
36798;BME280;22748;8.426;99.512;2023-07-13T02:33:55;100888.50;;;31.23;63.69
36798;BME280;22748;8.426;99.512;2023-07-13T02:36:26;100878.94;;;31.27;62.75
36798;BME280;22748;8.426;99.512;2023-07-13T02:39:01;100882.25;;;31.29;63.19
36798;BME280;22748;8.426;99.512;2023-07-13T02:41:33;100885.75;;;31.30;63.24
36798;BME280;22748;8.426;99.512;2023-07-13T02:44:02;100892.69;;;31.19;61.95
36798;BME280;22748;8.426;99.512;2023-07-13T02:46:35;100899.34;;;31.16;61.30
36798;BME280;22748;8.426;99.512;2023-07-13T02:49:06;100899.25;;;31.30;61.61
36798;BME280;22748;8.426;99.512;2023-07-13T02:51:37;100891.09;;;31.36;61.15
36798;BME280;22748;8.426;99.512;2023-07-13T02:54:11;100882.81;;;31.38;61.07
36798;BME280;22748;8.426;99.512;2023-07-13T02:56:42;100882.16;;;31.43;60.82
36798;BME280;22748;8.426;99.512;2023-07-13T02:59:13;100888.38;;;31.43;61.13
36798;BME280;22748;8.426;99.512;2023-07-13T03:01:44;100888.78;;;31.47;60.12
36798;BME280;22748;8.426;99.512;2023-07-13T03:04:20;100902.88;;;31.49;59.94
36798;BME280;22748;8.426;99.512;2023-07-13T03:06:51;100893.28;;;31.53;59.70
36798;BME280;22748;8.426;99.512;2023-07-13T03:09:28;100891.03;;;31.50;59.57
36798;BME280;22748;8.426;99.512;2023-07-13T03:11:59;100898.66;;;31.53;59.14
36798;BME280;22748;8.426;99.512;2023-07-13T03:14:29;100900.50;;;31.59;59.21
36798;BME280;22748;8.426;99.512;2023-07-13T03:17:06;100899.47;;;31.60;58.81
36798;BME280;22748;8.426;99.512;2023-07-13T03:19:35;100905.91;;;31.59;59.28
36798;BME280;22748;8.426;99.512;2023-07-13T03:22:07;100894.66;;;31.62;59.67
36798;BME280;22748;8.426;99.512;2023-07-13T03:24:38;100887.78;;;31.66;59.19
36798;BME280;22748;8.426;99.512;2023-07-13T03:27:08;100885.44;;;31.70;59.06
36798;BME280;22748;8.426;99.512;2023-07-13T03:29:39;100881.25;;;31.74;59.01
36798;BME280;22748;8.426;99.512;2023-07-13T03:32:11;100879.38;;;31.74;58.63
36798;BME280;22748;8.426;99.512;2023-07-13T03:34:53;100878.94;;;31.77;58.28
36798;BME280;22748;8.426;99.512;2023-07-13T03:37:25;100882.06;;;31.74;57.56
36798;BME280;22748;8.426;99.512;2023-07-13T03:39:57;100880.59;;;31.78;57.92
36798;BME280;22748;8.426;99.512;2023-07-13T03:42:31;100871.00;;;31.83;58.79
36798;BME280;22748;8.426;99.512;2023-07-13T03:45:02;100861.63;;;31.85;58.43
36798;BME280;22748;8.426;99.512;2023-07-13T03:47:32;100867.41;;;31.89;57.71
36798;BME280;22748;8.426;99.512;2023-07-13T03:50:06;100865.31;;;31.91;57.50
36798;BME280;22748;8.426;99.512;2023-07-13T03:52:37;100858.03;;;31.91;57.89
36798;BME280;22748;8.426;99.512;2023-07-13T03:55:10;100864.25;;;31.92;57.67
36798;BME280;22748;8.426;99.512;2023-07-13T03:57:41;100856.75;;;31.94;57.82
36798;BME280;22748;8.426;99.512;2023-07-13T04:00:10;100857.56;;;31.94;57.35
36798;BME280;22748;8.426;99.512;2023-07-13T04:02:44;100857.97;;;31.98;56.83
36798;BME280;22748;8.426;99.512;2023-07-13T04:05:17;100861.28;;;32.00;57.42
36798;BME280;22748;8.426;99.512;2023-07-13T04:07:47;100851.09;;;32.02;57.49
36798;BME280;22748;8.426;99.512;2023-07-13T04:10:22;100848.84;;;31.99;58.08
36798;BME280;22748;8.426;99.512;2023-07-13T04:12:53;100836.16;;;32.00;57.35
36798;BME280;22748;8.426;99.512;2023-07-13T04:15:22;100843.56;;;32.04;57.37
36798;BME280;22748;8.426;99.512;2023-07-13T04:17:57;100835.47;;;32.04;56.95
36798;BME280;22748;8.426;99.512;2023-07-13T04:20:30;100825.41;;;32.11;56.80
36798;BME280;22748;8.426;99.512;2023-07-13T04:23:02;100826.59;;;32.15;56.63
36798;BME280;22748;8.426;99.512;2023-07-13T04:25:35;100835.78;;;32.14;57.15
36798;BME280;22748;8.426;99.512;2023-07-13T04:28:05;100824.50;;;32.17;57.03
36798;BME280;22748;8.426;99.512;2023-07-13T04:30:36;100827.81;;;32.20;56.96
36798;BME280;22748;8.426;99.512;2023-07-13T04:33:08;100820.78;;;32.18;57.01
36798;BME280;22748;8.426;99.512;2023-07-13T04:35:39;100824.03;;;32.21;57.16
36798;BME280;22748;8.426;99.512;2023-07-13T04:38:10;100818.88;;;32.19;56.71
36798;BME280;22748;8.426;99.512;2023-07-13T04:40:46;100815.94;;;32.21;56.40
36798;BME280;22748;8.426;99.512;2023-07-13T04:43:16;100816.09;;;32.26;56.45
36798;BME280;22748;8.426;99.512;2023-07-13T04:45:46;100809.78;;;32.32;56.82
36798;BME280;22748;8.426;99.512;2023-07-13T04:48:17;100817.19;;;32.36;56.10
36798;BME280;22748;8.426;99.512;2023-07-13T04:50:53;100809.69;;;32.38;56.43
36798;BME280;22748;8.426;99.512;2023-07-13T04:53:25;100803.81;;;32.42;56.24
36798;BME280;22748;8.426;99.512;2023-07-13T04:56:04;100803.13;;;32.46;56.31
36798;BME280;22748;8.426;99.512;2023-07-13T04:58:34;100784.81;;;32.48;56.44
36798;BME280;22748;8.426;99.512;2023-07-13T05:01:06;100783.31;;;32.52;56.18
36798;BME280;22748;8.426;99.512;2023-07-13T05:03:36;100785.56;;;32.55;56.14
36798;BME280;22748;8.426;99.512;2023-07-13T05:06:08;100778.28;;;32.56;56.10
36798;BME280;22748;8.426;99.512;2023-07-13T05:08:39;100777.00;;;32.58;56.19
36798;BME280;22748;8.426;99.512;2023-07-13T05:11:11;100775.47;;;32.63;56.01
36798;BME280;22748;8.426;99.512;2023-07-13T05:13:41;100773.97;;;32.67;55.45
36798;BME280;22748;8.426;99.512;2023-07-13T05:16:13;100773.50;;;32.70;55.25
36798;BME280;22748;8.426;99.512;2023-07-13T05:18:43;100762.19;;;32.73;55.60
36798;BME280;22748;8.426;99.512;2023-07-13T05:21:14;100767.59;;;32.73;55.16
36798;BME280;22748;8.426;99.512;2023-07-13T05:23:44;100758.81;;;32.77;55.13
36798;BME280;22748;8.426;99.512;2023-07-13T05:26:18;100756.47;;;32.81;54.71
36798;BME280;22748;8.426;99.512;2023-07-13T05:28:49;100759.97;;;32.82;54.82
36798;BME280;22748;8.426;99.512;2023-07-13T05:31:20;100760.84;;;32.82;54.60
36798;BME280;22748;8.426;99.512;2023-07-13T05:33:53;100755.88;;;32.79;54.66
36798;BME280;22748;8.426;99.512;2023-07-13T05:36:24;100754.13;;;32.85;53.91
36798;BME280;22748;8.426;99.512;2023-07-13T05:38:55;100743.66;;;32.88;53.96
36798;BME280;22748;8.426;99.512;2023-07-13T05:41:28;100732.38;;;32.91;54.27
36798;BME280;22748;8.426;99.512;2023-07-13T05:43:59;100737.31;;;32.94;54.39
36798;BME280;22748;8.426;99.512;2023-07-13T05:46:30;100725.44;;;32.95;54.60
36798;BME280;22748;8.426;99.512;2023-07-13T05:49:01;100714.41;;;32.97;53.84
36798;BME280;22748;8.426;99.512;2023-07-13T05:51:33;100707.69;;;32.99;53.35
36798;BME280;22748;8.426;99.512;2023-07-13T05:54:08;100700.50;;;33.05;53.32
36798;BME280;22748;8.426;99.512;2023-07-13T05:56:40;100693.22;;;33.06;53.59
36798;BME280;22748;8.426;99.512;2023-07-13T05:59:11;100687.34;;;33.09;53.21
36798;BME280;22748;8.426;99.512;2023-07-13T06:01:40;100677.47;;;33.14;53.40
36798;BME280;22748;8.426;99.512;2023-07-13T06:04:11;100664.19;;;33.13;53.80
36798;BME280;22748;8.426;99.512;2023-07-13T06:06:41;100666.16;;;33.17;53.03
36798;BME280;22748;8.426;99.512;2023-07-13T06:09:12;100657.81;;;33.19;53.50
36798;BME280;22748;8.426;99.512;2023-07-13T06:11:45;100649.69;;;33.19;52.98
36798;BME280;22748;8.426;99.512;2023-07-13T06:14:15;100647.44;;;33.16;53.32
36798;BME280;22748;8.426;99.512;2023-07-13T06:16:47;100643.44;;;33.18;53.12
36798;BME280;22748;8.426;99.512;2023-07-13T06:19:17;100650.28;;;33.21;53.03
36798;BME280;22748;8.426;99.512;2023-07-13T06:21:48;100630.25;;;33.22;52.70
36798;BME280;22748;8.426;99.512;2023-07-13T06:24:18;100627.91;;;33.26;52.30
36798;BME280;22748;8.426;99.512;2023-07-13T06:26:50;100618.50;;;33.28;52.12
36798;BME280;22748;8.426;99.512;2023-07-13T06:29:21;100614.72;;;33.29;52.05
36798;BME280;22748;8.426;99.512;2023-07-13T06:31:52;100614.00;;;33.34;52.14
36798;BME280;22748;8.426;99.512;2023-07-13T06:34:22;100604.59;;;33.36;52.16
36798;BME280;22748;8.426;99.512;2023-07-13T06:36:52;100610.47;;;33.33;52.71
36798;BME280;22748;8.426;99.512;2023-07-13T06:39:24;100604.59;;;33.36;52.34
36798;BME280;22748;8.426;99.512;2023-07-13T06:41:55;100598.69;;;33.39;52.50
36798;BME280;22748;8.426;99.512;2023-07-13T06:44:32;100587.63;;;33.41;52.60
36798;BME280;22748;8.426;99.512;2023-07-13T06:47:03;100591.72;;;33.44;51.95
36798;BME280;22748;8.426;99.512;2023-07-13T06:49:34;100585.22;;;33.45;52.51
36798;BME280;22748;8.426;99.512;2023-07-13T06:52:06;100573.59;;;33.44;52.57
36798;BME280;22748;8.426;99.512;2023-07-13T06:54:36;100579.81;;;33.45;52.61
36798;BME280;22748;8.426;99.512;2023-07-13T06:57:08;100572.78;;;33.44;52.29
36798;BME280;22748;8.426;99.512;2023-07-13T06:59:38;100569.56;;;33.47;52.01
36798;BME280;22748;8.426;99.512;2023-07-13T07:02:10;100565.09;;;33.52;51.96
36798;BME280;22748;8.426;99.512;2023-07-13T07:04:41;100556.22;;;33.57;52.22
36798;BME280;22748;8.426;99.512;2023-07-13T07:07:13;100548.00;;;33.64;52.78
36798;BME280;22748;8.426;99.512;2023-07-13T07:09:45;100540.78;;;33.69;52.35
36798;BME280;22748;8.426;99.512;2023-07-13T07:12:17;100538.91;;;33.70;52.78
36798;BME280;22748;8.426;99.512;2023-07-13T07:14:47;100527.81;;;33.71;51.63
36798;BME280;22748;8.426;99.512;2023-07-13T07:17:17;100527.91;;;33.76;51.36
36798;BME280;22748;8.426;99.512;2023-07-13T07:19:50;100522.81;;;33.80;51.05
36798;BME280;22748;8.426;99.512;2023-07-13T07:22:21;100523.72;;;33.86;50.85
36798;BME280;22748;8.426;99.512;2023-07-13T07:24:54;100513.47;;;33.88;50.35
36798;BME280;22748;8.426;99.512;2023-07-13T07:27:28;100510.69;;;33.83;50.68
36798;BME280;22748;8.426;99.512;2023-07-13T07:29:58;100513.69;;;33.86;50.14
36798;BME280;22748;8.426;99.512;2023-07-13T07:32:30;100496.97;;;33.89;49.71
36798;BME280;22748;8.426;99.512;2023-07-13T07:35:00;100498.53;;;33.85;50.22
36798;BME280;22748;8.426;99.512;2023-07-13T07:37:30;100493.25;;;33.78;50.53
36798;BME280;22748;8.426;99.512;2023-07-13T07:40:01;100494.44;;;33.83;49.95
36798;BME280;22748;8.426;99.512;2023-07-13T07:42:36;100483.00;;;33.80;50.30
36798;BME280;22748;8.426;99.512;2023-07-13T07:45:06;100481.19;;;33.86;50.46
36798;BME280;22748;8.426;99.512;2023-07-13T07:47:38;100486.88;;;33.85;49.75
36798;BME280;22748;8.426;99.512;2023-07-13T07:50:09;100481.75;;;33.88;49.53
36798;BME280;22748;8.426;99.512;2023-07-13T07:52:39;100474.53;;;33.94;50.23
36798;BME280;22748;8.426;99.512;2023-07-13T07:55:11;100472.41;;;33.96;49.62
36798;BME280;22748;8.426;99.512;2023-07-13T07:57:42;100472.41;;;33.96;49.86
36798;BME280;22748;8.426;99.512;2023-07-13T08:00:13;100464.03;;;33.97;49.03
36798;BME280;22748;8.426;99.512;2023-07-13T08:02:44;100465.69;;;33.98;49.33
36798;BME280;22748;8.426;99.512;2023-07-13T08:05:18;100458.13;;;34.00;49.47
36798;BME280;22748;8.426;99.512;2023-07-13T08:07:48;100461.56;;;33.96;50.24
36798;BME280;22748;8.426;99.512;2023-07-13T08:10:18;100457.63;;;34.04;50.91
36798;BME280;22748;8.426;99.512;2023-07-13T08:12:50;100450.38;;;34.09;50.87
36798;BME280;22748;8.426;99.512;2023-07-13T08:15:20;100452.28;;;34.09;51.36
36798;BME280;22748;8.426;99.512;2023-07-13T08:17:51;100444.97;;;34.09;51.50
36798;BME280;22748;8.426;99.512;2023-07-13T08:20:24;100447.53;;;34.16;51.10
36798;BME280;22748;8.426;99.512;2023-07-13T08:22:58;100449.50;;;34.20;50.89
36798;BME280;22748;8.426;99.512;2023-07-13T08:25:29;100444.66;;;34.22;50.70
36798;BME280;22748;8.426;99.512;2023-07-13T08:28:01;100438.97;;;34.24;50.71
36798;BME280;22748;8.426;99.512;2023-07-13T08:30:33;100442.03;;;34.28;50.66
36798;BME280;22748;8.426;99.512;2023-07-13T08:33:03;100439.59;;;34.31;50.70
36798;BME280;22748;8.426;99.512;2023-07-13T08:35:33;100441.00;;;34.34;50.41
36798;BME280;22748;8.426;99.512;2023-07-13T08:38:04;100434.75;;;34.33;50.44
36798;BME280;22748;8.426;99.512;2023-07-13T08:40:35;100429.91;;;34.35;50.42
36798;BME280;22748;8.426;99.512;2023-07-13T08:43:12;100423.28;;;34.26;49.94
36798;BME280;22748;8.426;99.512;2023-07-13T08:45:45;100417.53;;;34.22;50.26
36798;BME280;22748;8.426;99.512;2023-07-13T08:48:20;100414.25;;;34.20;50.52
36798;BME280;22748;8.426;99.512;2023-07-13T08:50:58;100421.81;;;34.18;50.68
36798;BME280;22748;8.426;99.512;2023-07-13T08:53:34;100420.75;;;34.19;50.73
36798;BME280;22748;8.426;99.512;2023-07-13T08:56:14;100419.69;;;34.20;50.55
36798;BME280;22748;8.426;99.512;2023-07-13T08:59:01;100415.34;;;34.19;50.75
36798;BME280;22748;8.426;99.512;2023-07-13T09:01:48;100412.13;;;34.22;50.69
36798;BME280;22748;8.426;99.512;2023-07-13T09:04:27;100410.50;;;34.21;50.65
36798;BME280;22748;8.426;99.512;2023-07-13T09:07:04;100417.88;;;34.26;51.13
36798;BME280;22748;8.426;99.512;2023-07-13T09:09:46;100412.19;;;34.28;50.83
36798;BME280;22748;8.426;99.512;2023-07-13T09:12:25;100412.44;;;34.26;50.49
36798;BME280;22748;8.426;99.512;2023-07-13T09:15:24;100417.09;;;34.31;50.02
36798;BME280;22748;8.426;99.512;2023-07-13T09:17:58;100409.03;;;34.36;50.11
36798;BME280;22748;8.426;99.512;2023-07-13T09:20:32;100408.78;;;34.37;49.57
36798;BME280;22748;8.426;99.512;2023-07-13T09:23:11;100406.31;;;34.36;50.10
36798;BME280;22748;8.426;99.512;2023-07-13T09:25:44;100404.31;;;34.26;50.05
36798;BME280;22748;8.426;99.512;2023-07-13T09:28:19;100394.03;;;34.28;49.70
36798;BME280;22748;8.426;99.512;2023-07-13T09:30:57;100391.06;;;34.30;50.04
36798;BME280;22748;8.426;99.512;2023-07-13T09:33:32;100399.19;;;34.30;50.48
36798;BME280;22748;8.426;99.512;2023-07-13T09:36:18;100392.66;;;34.26;50.66
36798;BME280;22748;8.426;99.512;2023-07-13T09:38:49;100389.94;;;34.26;50.28
36798;BME280;22748;8.426;99.512;2023-07-13T09:41:28;100384.81;;;34.29;49.95
36798;BME280;22748;8.426;99.512;2023-07-13T09:44:13;100395.66;;;34.29;49.97
36798;BME280;22748;8.426;99.512;2023-07-13T09:46:52;100396.47;;;34.30;49.97
36798;BME280;22748;8.426;99.512;2023-07-13T09:49:25;100397.03;;;34.32;49.76
36798;BME280;22748;8.426;99.512;2023-07-13T09:52:00;100401.41;;;34.33;49.99
36798;BME280;22748;8.426;99.512;2023-07-13T09:54:35;100399.75;;;34.32;50.05
36798;BME280;22748;8.426;99.512;2023-07-13T09:57:14;100399.75;;;34.32;49.69
36798;BME280;22748;8.426;99.512;2023-07-13T09:59:47;100400.84;;;34.31;49.74
36798;BME280;22748;8.426;99.512;2023-07-13T10:02:28;100405.13;;;34.27;49.71
36798;BME280;22748;8.426;99.512;2023-07-13T10:05:00;100408.66;;;34.27;49.90
36798;BME280;22748;8.426;99.512;2023-07-13T10:07:32;100409.50;;;34.28;49.96
36798;BME280;22748;8.426;99.512;2023-07-13T10:10:02;100408.66;;;34.27;50.31
36798;BME280;22748;8.426;99.512;2023-07-13T10:12:35;100417.53;;;34.22;50.73
36798;BME280;22748;8.426;99.512;2023-07-13T10:15:15;100411.63;;;34.26;50.41
36798;BME280;22748;8.426;99.512;2023-07-13T10:17:51;100415.16;;;34.26;50.47
36798;BME280;22748;8.426;99.512;2023-07-13T10:20:23;100420.34;;;34.28;49.75
36798;BME280;22748;8.426;99.512;2023-07-13T10:22:58;100420.97;;;34.35;49.90
36798;BME280;22748;8.426;99.512;2023-07-13T10:25:33;100420.97;;;34.35;49.67
36798;BME280;22748;8.426;99.512;2023-07-13T10:30:53;100418.38;;;34.45;50.04
36798;BME280;22748;8.426;99.512;2023-07-13T10:33:29;100423.88;;;34.50;49.51
36798;BME280;22748;8.426;99.512;2023-07-13T10:36:08;100427.72;;;34.54;49.43
36798;BME280;22748;8.426;99.512;2023-07-13T10:38:42;100414.97;;;34.55;49.13
36798;BME280;22748;8.426;99.512;2023-07-13T10:41:17;100419.56;;;34.54;49.19
36798;BME280;22748;8.426;99.512;2023-07-13T10:43:50;100424.72;;;34.56;49.27
36798;BME280;22748;8.426;99.512;2023-07-13T10:46:25;100432.06;;;34.55;49.05
36798;BME280;22748;8.426;99.512;2023-07-13T10:49:04;100441.28;;;34.54;48.89
36798;BME280;22748;8.426;99.512;2023-07-13T10:51:37;100441.28;;;34.54;48.94
36798;BME280;22748;8.426;99.512;2023-07-13T10:54:16;100440.69;;;34.52;49.21
36798;BME280;22748;8.426;99.512;2023-07-13T10:56:52;100437.19;;;34.52;49.24
36798;BME280;22748;8.426;99.512;2023-07-13T10:59:28;100432.81;;;34.51;49.46
36798;BME280;22748;8.426;99.512;2023-07-13T11:02:08;100441.75;;;34.51;49.42
36798;BME280;22748;8.426;99.512;2023-07-13T11:04:43;100446.13;;;34.52;49.46
36798;BME280;22748;8.426;99.512;2023-07-13T11:07:21;100448.84;;;34.52;49.27
36798;BME280;22748;8.426;99.512;2023-07-13T11:09:53;100458.03;;;34.51;49.13
36798;BME280;22748;8.426;99.512;2023-07-13T11:12:56;100459.34;;;34.49;49.02
36798;BME280;22748;8.426;99.512;2023-07-13T11:15:45;100462.00;;;34.44;48.71
36798;BME280;22748;8.426;99.512;2023-07-13T11:18:22;100468.75;;;34.41;49.11
36798;BME280;22748;8.426;99.512;2023-07-13T11:21:13;100477.66;;;34.36;48.97
36798;BME280;22748;8.426;99.512;2023-07-13T11:23:47;100486.03;;;34.35;49.24
36798;BME280;22748;8.426;99.512;2023-07-13T11:26:41;100501.72;;;34.33;49.27
36798;BME280;22748;8.426;99.512;2023-07-13T11:29:31;100501.16;;;34.31;49.56
36798;BME280;22748;8.426;99.512;2023-07-13T11:32:24;100500.00;;;34.27;49.66
36798;BME280;22748;8.426;99.512;2023-07-13T11:34:55;100497.03;;;34.28;49.89
36798;BME280;22748;8.426;99.512;2023-07-13T11:37:31;100497.28;;;34.27;49.72
36798;BME280;22748;8.426;99.512;2023-07-13T11:40:04;100497.28;;;34.27;49.48
36798;BME280;22748;8.426;99.512;2023-07-13T11:42:36;100511.34;;;34.24;49.80
36798;BME280;22748;8.426;99.512;2023-07-13T11:45:19;100514.31;;;34.22;50.20
36798;BME280;22748;8.426;99.512;2023-07-13T11:47:51;100518.00;;;34.16;50.58
36798;BME280;22748;8.426;99.512;2023-07-13T11:50:24;100523.19;;;34.17;50.47
36798;BME280;22748;8.426;99.512;2023-07-13T11:52:59;100516.94;;;34.17;50.31
36798;BME280;22748;8.426;99.512;2023-07-13T11:55:31;100532.63;;;34.15;50.33
36798;BME280;22748;8.426;99.512;2023-07-13T11:58:10;100542.91;;;34.13;50.51
36798;BME280;22748;8.426;99.512;2023-07-13T12:00:42;100541.47;;;34.10;50.51
36798;BME280;22748;8.426;99.512;2023-07-13T12:03:21;100541.13;;;34.07;51.15
36798;BME280;22748;8.426;99.512;2023-07-13T12:06:00;100550.00;;;34.02;50.96
36798;BME280;22748;8.426;99.512;2023-07-13T12:08:39;100556.97;;;33.98;51.49
36798;BME280;22748;8.426;99.512;2023-07-13T12:11:16;100555.81;;;33.94;51.72
36798;BME280;22748;8.426;99.512;2023-07-13T12:13:48;100569.59;;;33.92;51.93
36798;BME280;22748;8.426;99.512;2023-07-13T12:16:25;100574.22;;;33.92;51.92
36798;BME280;22748;8.426;99.512;2023-07-13T12:18:58;100581.75;;;33.90;52.24
36798;BME280;22748;8.426;99.512;2023-07-13T12:21:31;100585.28;;;33.90;52.33
36798;BME280;22748;8.426;99.512;2023-07-13T12:24:05;100591.56;;;33.91;52.57
36798;BME280;22748;8.426;99.512;2023-07-13T12:26:44;100598.38;;;33.93;52.44
36798;BME280;22748;8.426;99.512;2023-07-13T12:29:17;100608.63;;;33.91;52.41
36798;BME280;22748;8.426;99.512;2023-07-13T12:31:49;100611.09;;;33.93;52.46
36798;BME280;22748;8.426;99.512;2023-07-13T12:34:22;100623.78;;;33.92;52.71
36798;BME280;22748;8.426;99.512;2023-07-13T12:36:59;100630.53;;;33.90;52.78
36798;BME280;22748;8.426;99.512;2023-07-13T12:39:45;100633.81;;;33.92;53.02
36798;BME280;22748;8.426;99.512;2023-07-13T12:42:21;100636.28;;;33.93;53.01
36798;BME280;22748;8.426;99.512;2023-07-13T12:44:54;100649.03;;;33.93;53.14
36798;BME280;22748;8.426;99.512;2023-07-13T12:47:28;100654.09;;;33.89;52.94
36798;BME280;22748;8.426;99.512;2023-07-13T12:50:02;100657.63;;;33.90;53.19
36798;BME280;22748;8.426;99.512;2023-07-13T12:52:35;100667.88;;;33.88;53.16
36798;BME280;22748;8.426;99.512;2023-07-13T12:55:12;100674.84;;;33.84;53.13
36798;BME280;22748;8.426;99.512;2023-07-13T12:57:45;100680.75;;;33.80;53.19
36798;BME280;22748;8.426;99.512;2023-07-13T13:00:26;100689.09;;;33.79;53.39
36798;BME280;22748;8.426;99.512;2023-07-13T13:03:05;100681.22;;;33.77;53.36
36798;BME280;22748;8.426;99.512;2023-07-13T13:05:37;100685.00;;;33.76;53.45
36798;BME280;22748;8.426;99.512;2023-07-13T13:08:09;100683.13;;;33.77;53.47
36798;BME280;22748;8.426;99.512;2023-07-13T13:10:43;100688.78;;;33.75;53.50
36798;BME280;22748;8.426;99.512;2023-07-13T13:13:13;100693.63;;;33.73;53.55
36798;BME280;22748;8.426;99.512;2023-07-13T13:15:44;100706.81;;;33.70;53.68
36798;BME280;22748;8.426;99.512;2023-07-13T13:18:16;100704.59;;;33.67;53.59
36798;BME280;22748;8.426;99.512;2023-07-13T13:20:49;100708.94;;;33.68;53.67
36798;BME280;22748;8.426;99.512;2023-07-13T13:23:21;100716.84;;;33.69;53.37
36798;BME280;22748;8.426;99.512;2023-07-13T13:25:55;100721.16;;;33.70;53.69